Time;durP1;ratioP1;P1;durP2;ratioP2;P2;SDS_P1;SDS_P2;PMS_P1;PMS_P2;Temp;Humidity;BMP_temperature;BMP_pressure;BME280_temperature;BME280_humidity;BME280_pressure;Samples;Min_cycle;Max_cycle;Signal;HPM_P1;HPM_P2
2021/12/07 05:39:01;;;;;;;36.77;21.82;;;;;;;-1.05;100.00;97394.13;1890649;76;28059;-61
2021/12/07 05:41:28;;;;;;;33.23;20.23;;;;;;;-1.09;100.00;97395.63;1861531;77;20890;-60
2021/12/07 05:43:55;;;;;;;31.23;18.37;;;;;;;-1.07;100.00;97397.52;1861603;77;21119;-60
2021/12/07 05:46:21;;;;;;;24.07;16.85;;;;;;;-1.06;100.00;97389.92;1861734;77;20856;-59
2021/12/07 05:48:49;;;;;;;18.80;14.43;;;;;;;-1.03;100.00;97398.64;1861557;77;20894;-63
2021/12/07 05:51:15;;;;;;;18.02;13.70;;;;;;;-0.96;100.00;97389.61;1862013;77;20916;-62
2021/12/07 05:53:42;;;;;;;24.32;15.40;;;;;;;-0.90;100.00;97393.15;1861609;77;20875;-61
2021/12/07 05:56:09;;;;;;;21.20;14.83;;;;;;;-0.85;100.00;97382.73;1861474;77;21121;-63
2021/12/07 05:58:35;;;;;;;19.52;14.35;;;;;;;-0.80;100.00;97383.62;1861394;77;20919;-62
2021/12/07 06:01:04;;;;;;;21.42;14.65;;;;;;;-0.75;100.00;97388.19;1778279;77;20876;-63
2021/12/07 06:03:30;;;;;;;20.12;14.18;;;;;;;-0.73;100.00;97386.15;1779243;80;21426;-62
2021/12/07 06:06:01;;;;;;;21.07;14.65;;;;;;;-0.67;100.00;97389.66;1779170;80;20869;-63
2021/12/07 06:08:26;;;;;;;21.25;15.35;;;;;;;-0.62;100.00;97397.14;1778827;80;21110;-59
2021/12/07 06:10:52;;;;;;;22.42;15.78;;;;;;;-0.56;100.00;97398.83;1779422;80;20920;-59
2021/12/07 06:13:19;;;;;;;22.15;16.10;;;;;;;-0.51;100.00;97398.12;1779288;80;20959;-59
2021/12/07 06:15:46;;;;;;;19.92;15.23;;;;;;;-0.52;100.00;97402.61;1779390;80;20927;-62
2021/12/07 06:18:13;;;;;;;20.32;14.45;;;;;;;-0.54;100.00;97417.80;1779042;80;20983;-60
2021/12/07 06:20:41;;;;;;;20.97;15.53;;;;;;;-0.54;99.89;97416.48;1776207;80;21116;-62
2021/12/07 06:23:15;;;;;;;20.75;14.87;;;;;;;-0.54;99.70;97421.75;1777895;80;20967;-59
2021/12/07 06:25:41;;;;;;;23.45;16.93;;;;;;;-0.54;99.73;97421.75;1778203;80;21375;-61
2021/12/07 06:28:08;;;;;;;23.02;16.60;;;;;;;-0.47;99.68;97427.67;1778351;80;20947;-60
2021/12/07 06:30:35;;;;;;;21.45;15.32;;;;;;;-0.48;99.23;97435.30;1778605;80;20876;-62
2021/12/07 06:33:02;;;;;;;22.32;15.78;;;;;;;-0.51;99.13;97435.76;1788306;80;21786;-60
2021/12/07 06:35:29;;;;;;;23.07;16.80;;;;;;;-0.48;99.11;97444.51;1781443;80;20959;-61
2021/12/07 06:37:55;;;;;;;27.13;17.85;;;;;;;-0.47;99.01;97440.83;1781559;80;20912;-62
2021/12/07 06:40:22;;;;;;;27.20;18.27;;;;;;;-0.47;98.94;97440.83;1781596;80;20947;-58
2021/12/07 06:42:48;;;;;;;24.67;16.35;;;;;;;-0.45;98.81;97435.35;1781584;80;20939;-60
2021/12/07 06:45:15;;;;;;;23.75;17.57;;;;;;;-0.44;98.68;97442.20;1781857;80;21269;-61
2021/12/07 06:47:42;;;;;;;26.25;17.85;;;;;;;-0.43;98.56;97441.17;1779139;80;21436;-64
2021/12/07 06:50:10;;;;;;;25.10;18.57;;;;;;;-0.43;98.31;97441.98;1778476;80;20916;-58
2021/12/07 06:52:37;;;;;;;25.10;17.60;;;;;;;-0.45;98.16;97446.69;1787547;80;20882;-57
2021/12/07 06:55:05;;;;;;;26.37;18.32;;;;;;;-0.50;98.05;97446.58;1781138;80;20923;-58
2021/12/07 06:57:32;;;;;;;28.50;18.52;;;;;;;-0.52;97.98;97448.64;1780981;80;21657;-58
2021/12/07 06:59:58;;;;;;;31.57;19.95;;;;;;;-0.52;98.00;97440.75;1778103;80;20814;-58
2021/12/07 07:02:25;;;;;;;26.50;17.85;;;;;;;-0.50;97.96;97449.21;1779544;80;20879;-64
2021/12/07 07:04:53;;;;;;;25.88;18.52;;;;;;;-0.47;97.92;97447.95;1775699;80;21447;-60
2021/12/07 07:07:22;;;;;;;28.87;17.90;;;;;;;-0.47;97.84;97451.35;1775390;80;20983;-63
2021/12/07 07:09:51;;;;;;;27.35;18.70;;;;;;;-0.44;97.75;97450.89;1768098;80;20944;-59
2021/12/07 07:12:18;;;;;;;27.30;18.25;;;;;;;-0.43;97.62;97453.82;1779746;80;21383;-60
2021/12/07 07:14:46;;;;;;;27.60;19.10;;;;;;;-0.43;97.54;97451.19;1775510;80;20916;-62
2021/12/07 07:17:14;;;;;;;28.02;19.05;;;;;;;-0.42;97.52;97451.97;1766683;80;21052;-63
2021/12/07 07:19:42;;;;;;;27.50;18.37;;;;;;;-0.39;97.55;97454.14;1764866;81;20998;-59
2021/12/07 07:22:10;;;;;;;24.40;18.35;;;;;;;-0.33;97.38;97463.21;1777434;80;21120;-63
2021/12/07 07:24:42;;;;;;;25.40;19.00;;;;;;;-0.32;97.29;97460.88;1773570;80;21583;-60
2021/12/07 07:27:08;;;;;;;31.95;19.80;;;;;;;-0.27;97.12;97470.19;1777451;80;20907;-62
2021/12/07 07:29:37;;;;;;;32.42;20.62;;;;;;;-0.23;97.08;97470.00;1776989;80;21520;-65
2021/12/07 07:32:06;;;;;;;31.15;20.48;;;;;;;-0.22;96.84;97472.92;1776810;80;21053;-59
2021/12/07 07:34:35;;;;;;;29.42;20.32;;;;;;;-0.22;96.66;97472.92;1777580;80;21114;-68
2021/12/07 07:37:04;;;;;;;35.63;22.00;;;;;;;-0.19;96.41;97479.55;1779352;80;21414;-61
2021/12/07 07:39:33;;;;;;;34.48;21.55;;;;;;;-0.22;96.30;97475.55;1778217;80;22102;-61
2021/12/07 07:42:02;;;;;;;32.63;21.17;;;;;;;-0.20;96.25;97477.44;1772132;79;20899;-61
2021/12/07 07:44:32;;;;;;;29.98;20.17;;;;;;;-0.20;96.12;97477.94;1776390;79;21012;-63
2021/12/07 07:47:01;;;;;;;28.75;18.60;;;;;;;-0.22;95.86;97476.06;1773985;80;21671;-63
2021/12/07 07:49:29;;;;;;;29.35;19.42;;;;;;;-0.23;95.70;97478.41;1777442;80;20914;-60
2021/12/07 07:51:57;;;;;;;30.85;19.37;;;;;;;-0.24;95.75;97475.50;1774135;79;21019;-59
2021/12/07 07:54:28;;;;;;;29.85;19.25;;;;;;;-0.23;95.69;97480.52;1774395;80;20909;-61
2021/12/07 07:56:56;;;;;;;31.00;20.92;;;;;;;-0.22;95.59;97480.82;1766513;80;21400;-61
2021/12/07 07:59:27;;;;;;;31.60;20.68;;;;;;;-0.19;95.57;97472.44;1768384;79;20932;-58
2021/12/07 08:01:56;;;;;;;32.50;21.80;;;;;;;-0.17;95.34;97474.85;1774283;80;21307;-62
2021/12/07 08:04:25;;;;;;;32.28;22.58;;;;;;;-0.21;95.23;97467.12;1774286;80;21483;-63
2021/12/07 08:06:54;;;;;;;33.38;21.07;;;;;;;-0.26;95.28;97467.83;1774520;80;21502;-64
2021/12/07 08:09:24;;;;;;;32.23;21.82;;;;;;;-0.25;95.32;97469.44;1770432;80;20979;-60
2021/12/07 08:11:54;;;;;;;35.63;21.37;;;;;;;-0.29;95.12;97474.89;1773929;80;21124;-61
2021/12/07 08:14:23;;;;;;;34.03;21.48;;;;;;;-0.31;95.17;97480.91;1774304;80;21537;-62
2021/12/07 08:16:52;;;;;;;37.40;21.45;;;;;;;-0.31;95.19;97484.86;1774253;80;20989;-59
2021/12/07 08:19:21;;;;;;;32.80;21.05;;;;;;;-0.31;95.21;97487.48;1772848;80;21541;-63
2021/12/07 08:21:50;;;;;;;30.72;21.45;;;;;;;-0.30;95.16;97495.65;1774891;80;21514;-59
2021/12/07 08:24:20;;;;;;;32.33;21.15;;;;;;;-0.31;95.14;97499.33;1770895;80;20962;-62
2021/12/07 08:26:51;;;;;;;34.43;22.62;;;;;;;-0.31;95.04;97499.84;1774761;80;21391;-61
2021/12/07 08:29:19;;;;;;;36.35;23.55;;;;;;;-0.32;95.04;97491.65;1770717;80;20959;-62
2021/12/07 08:31:48;;;;;;;37.88;23.83;;;;;;;-0.33;95.08;97494.80;1773248;80;20903;-62
2021/12/07 08:34:18;;;;;;;36.20;22.10;;;;;;;-0.31;95.13;97492.75;1771103;80;20895;-64
2021/12/07 08:36:47;;;;;;;34.60;20.50;;;;;;;-0.31;94.97;97485.37;1774700;80;21834;-60
2021/12/07 08:39:20;;;;;;;28.90;18.32;;;;;;;-0.35;94.80;97482.39;1765376;80;21054;-62
2021/12/07 08:41:49;;;;;;;32.78;20.08;;;;;;;-0.38;94.78;97476.30;1767372;80;21505;-58
2021/12/07 08:44:18;;;;;;;33.65;20.72;;;;;;;-0.40;94.85;97470.44;1768611;80;21064;-62
2021/12/07 08:46:47;;;;;;;34.13;22.55;;;;;;;-0.42;94.79;97475.65;1773119;80;20887;-64
2021/12/07 08:49:18;;;;;;;36.50;22.10;;;;;;;-0.42;94.88;97484.86;1772799;80;21107;-60
2021/12/07 08:51:47;;;;;;;32.60;21.27;;;;;;;-0.43;94.69;97480.14;1772653;80;20958;-65
2021/12/07 08:54:28;;;;;;;34.18;20.52;;;;;;;-0.45;94.70;97473.50;1773760;80;20884;-60
2021/12/07 08:59:52;;;;;;;32.00;19.05;;;;;;;-0.51;94.69;97468.64;1773486;80;21081;-60
2021/12/07 09:02:09;;;;;;;26.77;15.98;;;;;;;-0.52;94.67;97461.80;1739544;82;21079;-60
2021/12/07 09:04:39;;;;;;;24.52;16.12;;;;;;;-0.52;94.65;97470.20;1740083;82;21518;-64
2021/12/07 09:07:09;;;;;;;27.77;18.37;;;;;;;-0.53;94.56;97473.34;1743779;82;21383;-63
2021/12/07 09:09:38;;;;;;;27.75;17.48;;;;;;;-0.54;94.50;97474.90;1739334;82;21450;-63
2021/12/07 09:12:08;;;;;;;27.37;17.77;;;;;;;-0.54;94.49;97478.84;1743843;82;21479;-60
2021/12/07 09:14:37;;;;;;;28.05;17.62;;;;;;;-0.54;94.41;97479.63;1743800;82;21113;-59
2021/12/07 09:17:07;;;;;;;31.40;17.10;;;;;;;-0.52;94.41;97484.16;1716729;82;21427;-60
2021/12/07 09:19:36;;;;;;;28.35;16.67;;;;;;;-0.53;94.22;97475.16;1742823;82;21949;-59
2021/12/07 09:22:05;;;;;;;26.17;16.60;;;;;;;-0.58;94.24;97477.18;1742989;82;21132;-64
2021/12/07 09:24:34;;;;;;;23.15;16.05;;;;;;;-0.60;94.12;97476.62;1742611;82;21049;-66
2021/12/07 09:27:03;;;;;;;28.67;17.00;;;;;;;-0.62;94.04;97482.62;1742751;82;21807;-62
2021/12/07 09:29:33;;;;;;;25.27;17.02;;;;;;;-0.66;94.08;97480.19;1743462;82;20994;-58
2021/12/07 09:32:04;;;;;;;26.70;17.82;;;;;;;-0.67;93.95;97481.20;1741015;82;20950;-62
2021/12/07 09:34:33;;;;;;;25.00;16.65;;;;;;;-0.73;93.93;97482.14;1743342;82;21010;-62
2021/12/07 09:37:00;;;;;;;24.75;16.62;;;;;;;-0.74;93.98;97487.09;1743705;82;20994;-64
2021/12/07 09:39:27;;;;;;;25.05;17.35;;;;;;;-0.74;94.00;97484.47;1743687;82;21114;-60
2021/12/07 09:41:55;;;;;;;25.52;16.75;;;;;;;-0.75;93.92;97484.17;1743925;82;20988;-63
2021/12/07 09:44:23;;;;;;;27.17;18.62;;;;;;;-0.75;93.95;97482.86;1743591;82;21399;-62
2021/12/07 09:46:50;;;;;;;25.97;17.60;;;;;;;-0.73;93.99;97478.19;1743939;82;21011;-59
2021/12/07 09:49:18;;;;;;;25.45;16.95;;;;;;;-0.66;93.92;97477.55;1739486;82;21538;-59
2021/12/07 09:51:45;;;;;;;28.30;18.80;;;;;;;-0.60;93.93;97475.81;1743758;82;21119;-64
2021/12/07 09:54:12;;;;;;;26.93;17.27;;;;;;;-0.57;93.64;97480.11;1726462;82;21007;-60
2021/12/07 09:56:40;;;;;;;28.27;17.17;;;;;;;-0.60;93.50;97477.93;1726492;82;21040;-61
2021/12/07 09:59:09;;;;;;;25.48;17.60;;;;;;;-0.63;93.43;97475.75;1704410;82;21573;-65
2021/12/07 10:01:38;;;;;;;25.92;17.77;;;;;;;-0.63;93.25;97467.06;1739362;81;21018;-62
2021/12/07 10:04:06;;;;;;;26.00;17.65;;;;;;;-0.64;93.18;97469.42;1764776;81;21151;-64
2021/12/07 10:06:34;;;;;;;25.30;17.82;;;;;;;-0.66;93.13;97470.98;1761161;81;20889;-59
2021/12/07 10:09:04;;;;;;;26.93;16.95;;;;;;;-0.68;93.02;97466.44;1767188;81;21491;-64
2021/12/07 10:11:32;;;;;;;25.08;17.23;;;;;;;-0.69;92.89;97459.59;1765213;80;20991;-62
2021/12/07 10:14:01;;;;;;;26.30;18.70;;;;;;;-0.77;92.82;97455.48;1767127;81;21455;-61
2021/12/07 10:16:28;;;;;;;27.00;17.45;;;;;;;-0.81;92.88;97454.87;1767235;81;21122;-64
2021/12/07 10:18:57;;;;;;;26.52;17.45;;;;;;;-0.81;92.97;97462.75;1767912;80;20877;-62
2021/12/07 10:21:28;;;;;;;24.00;16.42;;;;;;;-0.82;92.85;97451.94;1766402;81;20896;-61
2021/12/07 10:24:02;;;;;;;26.17;18.57;;;;;;;-0.83;92.71;97459.56;1767126;80;20940;-61
2021/12/07 10:26:34;;;;;;;26.90;18.40;;;;;;;-0.89;92.50;97461.27;1776788;80;21077;-59
2021/12/07 10:29:14;;;;;;;26.15;18.05;;;;;;;-0.91;92.65;97465.16;1741843;82;21154;-64
2021/12/07 10:31:47;;;;;;;24.77;17.92;;;;;;;-0.90;92.62;97462.83;1770830;80;20916;-61
2021/12/07 10:34:21;;;;;;;28.20;18.87;;;;;;;-0.90;92.63;97466.26;1767471;81;21071;-66
2021/12/07 10:36:56;;;;;;;;;;;;;;;-0.89;92.58;97469.16;1764188;80;21003;-59
2021/12/07 10:39:33;;;;;;;26.65;18.60;;;;;;;-0.82;92.63;97467.72;1763617;81;20361;-64
2021/12/07 10:42:21;;;;;;;29.90;18.57;;;;;;;-0.78;92.49;97470.19;1744562;81;21030;-62
2021/12/07 10:44:50;;;;;;;28.20;18.85;;;;;;;-0.78;92.33;97464.39;1764947;81;21577;-58
2021/12/07 10:47:21;;;;;;;28.92;18.37;;;;;;;-0.75;92.34;97471.02;1760462;80;20980;-60
2021/12/07 10:50:01;;;;;;;30.95;19.55;;;;;;;-0.77;92.12;97458.62;1772222;79;21514;-56
2021/12/07 10:52:40;;;;;;;27.40;18.55;;;;;;;-0.81;91.97;97456.18;1767061;81;21411;-59
2021/12/07 10:55:26;;;;;;;31.40;19.90;;;;;;;-0.86;92.01;97460.81;1768085;81;21681;-57
2021/12/07 10:58:00;;;;;;;31.87;20.70;;;;;;;-0.86;92.02;97463.95;1756179;80;20924;-62
2021/12/07 11:00:40;;;;;;;30.10;20.23;;;;;;;-0.81;91.99;97460.93;1762968;80;21030;-58
2021/12/07 11:03:10;;;;;;;33.28;20.55;;;;;;;-0.79;91.94;97465.95;1764006;80;20900;-60
2021/12/07 11:05:46;;;;;;;32.25;18.60;;;;;;;-0.78;91.86;97458.36;1765446;79;20896;-57
2021/12/07 11:08:15;;;;;;;29.95;19.70;;;;;;;-0.82;91.72;97460.63;1758370;81;21830;-61
2021/12/07 11:10:48;;;;;;;35.13;21.17;;;;;;;-0.88;91.63;97469.45;1788249;79;21221;-59
2021/12/07 11:13:33;;;;;;;32.38;20.27;;;;;;;-0.89;91.85;97468.34;1757567;80;21016;-62
2021/12/07 11:15:59;;;;;;;30.68;20.20;;;;;;;-0.88;91.78;97464.20;1786816;80;21548;-58
2021/12/07 11:18:39;;;;;;;31.60;20.48;;;;;;;-0.91;91.86;97465.16;1756183;81;21133;-60
2021/12/07 11:21:13;;;;;;;30.05;20.17;;;;;;;-0.87;91.92;97464.97;1788970;79;21677;-58
2021/12/07 11:23:46;;;;;;;30.30;21.25;;;;;;;-0.84;91.88;97464.52;1788773;80;21011;-58
2021/12/07 11:31:53;;;;;;;35.08;22.95;;;;;;;-0.81;91.84;97463.56;1789315;79;21394;-60
2021/12/07 11:34:29;;;;;;;32.60;21.23;;;;;;;-0.82;91.92;97465.89;1789086;80;21861;-61
2021/12/07 11:37:13;;;;;;;32.78;21.48;;;;;;;-0.81;91.80;97468.82;1788763;79;21477;-62
2021/12/07 11:39:49;;;;;;;31.65;20.62;;;;;;;-0.83;91.71;97466.13;1789429;80;21001;-62
2021/12/07 11:42:32;;;;;;;30.15;19.82;;;;;;;-0.86;91.67;97474.47;1789585;80;20854;-58
2021/12/07 11:45:11;;;;;;;32.85;21.20;;;;;;;-0.88;91.58;97476.03;1789805;79;20924;-59
2021/12/07 11:47:49;;;;;;;30.48;20.82;;;;;;;-0.91;91.61;97485.68;1779492;80;21442;-64
2021/12/07 11:50:36;;;;;;;31.80;20.95;;;;;;;-0.94;91.63;97478.75;1789422;79;21365;-60
2021/12/07 11:53:22;;;;;;;32.70;19.52;;;;;;;-0.96;91.60;97482.12;1789843;79;21386;-60
2021/12/07 11:55:54;;;;;;;30.40;19.77;;;;;;;-1.01;91.59;97482.81;1789827;79;20886;-62
2021/12/07 11:58:23;;;;;;;32.55;20.90;;;;;;;-1.03;91.66;97478.30;1789818;80;20949;-58
2021/12/07 12:00:54;;;;;;;35.10;20.32;;;;;;;-1.07;91.70;97475.86;1789349;79;21753;-57
2021/12/07 12:03:23;;;;;;;33.15;20.55;;;;;;;-1.12;91.81;97477.05;1789386;80;20925;-60
2021/12/07 12:05:53;;;;;;;34.15;21.48;;;;;;;-1.11;91.92;97475.23;1789732;80;20929;-58
2021/12/07 12:08:22;;;;;;;33.45;21.23;;;;;;;-1.14;91.92;97475.67;1789577;80;21485;-58
2021/12/07 12:10:58;;;;;;;36.53;22.00;;;;;;;-1.17;91.94;97473.50;1789739;79;21028;-61
2021/12/07 12:13:55;;;;;;;34.88;21.55;;;;;;;-1.19;91.97;97476.88;1789701;79;21468;-59
2021/12/07 12:16:47;;;;;;;32.58;20.77;;;;;;;-1.22;91.98;97477.31;1766099;79;21414;-60
2021/12/07 12:19:51;;;;;;;34.73;20.95;;;;;;;-1.26;92.13;97474.87;1748629;79;21398;-65
2021/12/07 12:22:33;;;;;;;32.63;21.45;;;;;;;-1.26;92.30;97477.50;1701936;84;20996;-57
2021/12/07 12:25:11;;;;;;;36.77;22.10;;;;;;;-1.25;92.26;97485.68;1702397;84;21510;-60
2021/12/07 12:27:40;;;;;;;32.63;20.68;;;;;;;-1.27;92.35;97490.36;1759256;79;21699;-58
2021/12/07 12:30:37;;;;;;;36.95;22.82;;;;;;;-1.23;92.47;97491.50;1789405;79;20874;-60
2021/12/07 12:33:12;;;;;;;35.65;22.73;;;;;;;-1.24;92.40;97491.20;1789960;79;20826;-60
2021/12/07 12:35:45;;;;;;;36.45;22.48;;;;;;;-1.22;92.37;97489.95;1789565;80;21401;-59
2021/12/07 12:38:31;;;;;;;38.60;23.18;;;;;;;-1.25;92.33;97490.42;1789790;79;21507;-58
2021/12/07 12:41:10;;;;;;;37.00;23.55;;;;;;;-1.30;92.34;97491.62;1785014;80;21068;-63
2021/12/07 12:43:59;;;;;;;35.17;22.65;;;;;;;-1.34;92.47;97494.39;1774964;80;20919;-59
2021/12/07 12:46:30;;;;;;;32.95;21.93;;;;;;;-1.40;92.54;97498.74;1756817;81;20929;-60
2021/12/07 12:49:07;;;;;;;34.38;22.00;;;;;;;-1.43;92.58;97507.06;1789913;79;21450;-61
2021/12/07 12:51:51;;;;;;;34.45;22.45;;;;;;;-1.45;92.64;97505.18;1789441;80;20925;-59
2021/12/07 12:54:20;;;;;;;34.85;22.27;;;;;;;-1.45;92.66;97507.81;1787858;79;21545;-57
2021/12/07 12:56:49;;;;;;;35.73;21.57;;;;;;;-1.46;92.72;97506.19;1757802;79;21076;-61
2021/12/07 12:59:19;;;;;;;35.68;22.17;;;;;;;-1.48;92.71;97501.68;1757216;81;21510;-65
2021/12/07 13:01:46;;;;;;;37.63;24.52;;;;;;;-1.52;92.75;97501.05;1758168;80;20982;-65
2021/12/07 13:04:23;;;;;;;37.13;22.48;;;;;;;-1.55;92.89;97494.92;1756317;81;20938;-61
2021/12/07 13:09:44;;;;;;;35.15;22.65;;;;;;;-1.55;92.91;97500.98;1735276;82;20904;-62
2021/12/07 13:12:30;;;;;;;38.10;21.97;;;;;;;-1.60;92.94;97505.33;1744854;82;21412;-60
2021/12/07 13:15:06;;;;;;;32.50;21.73;;;;;;;-1.62;93.07;97508.16;1744286;82;20896;-62
2021/12/07 13:17:48;;;;;;;34.30;22.37;;;;;;;-1.59;93.08;97515.59;1744725;82;20968;-60
2021/12/07 13:20:29;;;;;;;32.10;21.10;;;;;;;-1.62;93.07;97509.47;1745059;82;21412;-62
2021/12/07 13:23:12;;;;;;;30.90;20.40;;;;;;;-1.65;93.04;97513.08;1747506;80;20960;-61
2021/12/07 13:25:51;;;;;;;35.52;19.77;;;;;;;-1.67;93.04;97513.28;1746258;80;20927;-63
2021/12/07 13:28:30;;;;;;;28.62;19.50;;;;;;;-1.66;93.07;97508.83;1757182;80;20900;-57
2021/12/07 13:31:18;;;;;;;31.40;20.48;;;;;;;-1.67;92.98;97517.22;1747297;82;20884;-59
2021/12/07 13:33:51;;;;;;;37.67;20.95;;;;;;;-1.71;92.97;97518.70;1777341;80;21764;-60
2021/12/07 13:36:47;;;;;;;34.95;21.15;;;;;;;-1.74;93.06;97514.39;1777223;80;20905;-59
2021/12/07 13:39:20;;;;;;;32.48;21.60;;;;;;;-1.75;93.13;97518.86;1777489;80;21052;-61
2021/12/07 13:42:22;;;;;;;35.33;22.20;;;;;;;-1.72;93.17;97523.64;1769599;80;20889;-65
2021/12/07 13:45:06;;;;;;;39.48;24.43;;;;;;;-1.71;93.17;97529.70;1774329;80;20956;-60
2021/12/07 13:47:37;;;;;;;39.35;23.52;;;;;;;-1.76;93.08;97538.25;1775209;80;20967;-61
2021/12/07 13:50:12;;;;;;;35.98;22.25;;;;;;;-1.81;93.18;97534.69;1773176;80;20916;-60
2021/12/07 13:52:43;;;;;;;44.27;26.33;;;;;;;-1.84;93.25;97538.58;1777036;80;21130;-64
2021/12/07 13:55:15;;;;;;;46.68;26.70;;;;;;;-1.85;93.21;97541.41;1777358;80;21373;-59
2021/12/07 13:57:46;;;;;;;42.43;24.52;;;;;;;-1.87;93.40;97546.89;1776732;80;20979;-64
2021/12/07 14:00:31;;;;;;;45.58;27.15;;;;;;;-1.86;93.36;97547.17;1777135;80;21049;-60
2021/12/07 14:03:05;;;;;;;43.60;25.85;;;;;;;-1.88;93.37;97543.97;1768514;80;21338;-62
2021/12/07 14:05:42;;;;;;;39.67;23.05;;;;;;;-1.91;93.50;97549.69;1767228;80;21004;-59
2021/12/07 14:08:12;;;;;;;34.53;21.75;;;;;;;-1.89;93.52;97556.02;1763881;81;20933;-62
2021/12/07 14:10:52;;;;;;;38.08;23.32;;;;;;;-1.88;93.46;97550.53;1766803;80;20952;-60
2021/12/07 14:13:19;;;;;;;34.67;23.05;;;;;;;-1.90;93.45;97548.64;1766827;80;21107;-59
2021/12/07 14:15:48;;;;;;;32.42;21.07;;;;;;;-1.92;93.54;97549.88;1774575;80;21001;-61
2021/12/07 14:18:18;;;;;;;37.67;22.85;;;;;;;-1.91;93.64;97553.63;1774262;80;21384;-60
2021/12/07 14:20:52;;;;;;;39.18;22.60;;;;;;;-1.91;93.65;97554.93;1762894;81;20933;-62
2021/12/07 14:23:41;;;;;;;36.90;23.47;;;;;;;-1.90;93.69;97561.77;1778941;80;21465;-60
2021/12/07 14:26:15;;;;;;;35.35;22.98;;;;;;;-1.94;93.56;97555.37;1742777;82;21049;-62
2021/12/07 14:28:50;;;;;;;40.17;24.10;;;;;;;-1.99;93.69;97552.59;1774560;80;20920;-64
2021/12/07 14:31:29;;;;;;;34.65;22.62;;;;;;;-2.02;93.69;97546.47;1774940;80;20829;-62
2021/12/07 14:34:02;;;;;;;43.60;24.50;;;;;;;-2.06;93.79;97551.88;1748765;80;20904;-62
2021/12/07 14:36:35;;;;;;;39.33;23.35;;;;;;;-2.04;93.94;97550.34;1772542;80;21005;-59
2021/12/07 14:39:18;;;;;;;39.73;24.50;;;;;;;-2.05;93.83;97545.63;1774163;80;21067;-62
2021/12/07 14:41:50;;;;;;;43.00;24.02;;;;;;;-2.11;93.82;97550.42;1748147;82;20929;-61
2021/12/07 14:44:20;;;;;;;43.83;24.63;;;;;;;-2.15;94.03;97551.89;1744407;82;20986;-60
2021/12/07 14:46:48;;;;;;;39.40;24.23;;;;;;;-2.15;94.04;97553.20;1744314;82;21001;-60
2021/12/07 14:49:15;;;;;;;44.20;25.17;;;;;;;-2.15;94.17;97553.20;1737654;82;20912;-59
2021/12/07 14:51:42;;;;;;;42.50;25.27;;;;;;;-2.12;94.18;97551.46;1737721;82;21170;-57
2021/12/07 14:54:08;;;;;;;44.20;25.08;;;;;;;-2.12;94.14;97554.86;1737667;82;20920;-59
2021/12/07 14:56:36;;;;;;;39.38;24.75;;;;;;;-2.14;94.12;97552.16;1737978;82;20936;-58
2021/12/07 14:59:10;;;;;;;36.85;24.07;;;;;;;-2.17;94.15;97547.37;1737779;82;20983;-61
2021/12/07 15:01:43;;;;;;;43.20;25.15;;;;;;;-2.20;94.21;97543.88;1738124;82;20944;-60
